sensor_id;sensor_type;location;lat;lon;timestamp;P1;durP1;ratioP1;P2;durP2;ratioP2
76477;SDS011;65309;49.790;18.972;2024-01-11T00:00:15;0.20;;;0.13;;
76477;SDS011;65309;49.790;18.972;2024-01-11T00:05:39;0.03;;;0.03;;
76477;SDS011;65309;49.790;18.972;2024-01-11T00:10:41;0.20;;;0.20;;
76477;SDS011;65309;49.790;18.972;2024-01-11T00:15:43;0.28;;;0.28;;
76477;SDS011;65309;49.790;18.972;2024-01-11T00:20:47;0.82;;;0.32;;
76477;SDS011;65309;49.790;18.972;2024-01-11T00:25:49;1.65;;;0.40;;
76477;SDS011;65309;49.790;18.972;2024-01-11T00:30:51;1.88;;;1.40;;
76477;SDS011;65309;49.790;18.972;2024-01-11T00:35:55;0.43;;;0.43;;
76477;SDS011;65309;49.790;18.972;2024-01-11T00:40:57;0.85;;;0.85;;
76477;SDS011;65309;49.790;18.972;2024-01-11T00:45:59;0.30;;;0.30;;
76477;SDS011;65309;49.790;18.972;2024-01-11T00:51:03;0.15;;;0.15;;
76477;SDS011;65309;49.790;18.972;2024-01-11T00:56:06;5.72;;;1.48;;
76477;SDS011;65309;49.790;18.972;2024-01-11T01:06:20;2.72;;;1.35;;
76477;SDS011;65309;49.790;18.972;2024-01-11T01:11:22;3.65;;;2.65;;
76477;SDS011;65309;49.790;18.972;2024-01-11T01:16:24;9.55;;;3.05;;
76477;SDS011;65309;49.790;18.972;2024-01-11T01:21:28;2.47;;;1.85;;
76477;SDS011;65309;49.790;18.972;2024-01-11T01:26:30;0.63;;;0.63;;
76477;SDS011;65309;49.790;18.972;2024-01-11T01:31:32;4.75;;;2.10;;
76477;SDS011;65309;49.790;18.972;2024-01-11T01:36:40;1.63;;;0.75;;
76477;SDS011;65309;49.790;18.972;2024-01-11T01:41:42;1.65;;;0.77;;
76477;SDS011;65309;49.790;18.972;2024-01-11T01:46:44;3.90;;;1.30;;
76477;SDS011;65309;49.790;18.972;2024-01-11T01:51:48;0.35;;;0.35;;
76477;SDS011;65309;49.790;18.972;2024-01-11T01:56:51;1.27;;;1.17;;
76477;SDS011;65309;49.790;18.972;2024-01-11T02:01:54;0.50;;;0.50;;
76477;SDS011;65309;49.790;18.972;2024-01-11T02:06:58;5.30;;;1.02;;
76477;SDS011;65309;49.790;18.972;2024-01-11T02:12:00;1.25;;;1.13;;
76477;SDS011;65309;49.790;18.972;2024-01-11T02:17:04;1.13;;;0.93;;
76477;SDS011;65309;49.790;18.972;2024-01-11T02:22:11;2.45;;;1.38;;
76477;SDS011;65309;49.790;18.972;2024-01-11T02:27:18;1.92;;;0.60;;
76477;SDS011;65309;49.790;18.972;2024-01-11T02:32:20;1.02;;;0.95;;
76477;SDS011;65309;49.790;18.972;2024-01-11T02:37:23;5.70;;;0.93;;
76477;SDS011;65309;49.790;18.972;2024-01-11T02:42:26;1.80;;;1.33;;
76477;SDS011;65309;49.790;18.972;2024-01-11T02:47:29;1.63;;;1.20;;
76477;SDS011;65309;49.790;18.972;2024-01-11T02:52:32;0.57;;;0.57;;
76477;SDS011;65309;49.790;18.972;2024-01-11T02:57:35;2.42;;;2.22;;
76477;SDS011;65309;49.790;18.972;2024-01-11T03:02:37;2.83;;;1.30;;
76477;SDS011;65309;49.790;18.972;2024-01-11T03:07:40;1.00;;;0.98;;
76477;SDS011;65309;49.790;18.972;2024-01-11T03:12:44;1.50;;;1.38;;
76477;SDS011;65309;49.790;18.972;2024-01-11T03:17:46;3.00;;;2.10;;
76477;SDS011;65309;49.790;18.972;2024-01-11T03:22:48;0.65;;;0.65;;
76477;SDS011;65309;49.790;18.972;2024-01-11T03:27:52;2.58;;;2.25;;
76477;SDS011;65309;49.790;18.972;2024-01-11T03:32:54;1.90;;;1.55;;
76477;SDS011;65309;49.790;18.972;2024-01-11T03:37:56;1.60;;;1.50;;
76477;SDS011;65309;49.790;18.972;2024-01-11T03:42:59;0.50;;;0.50;;
76477;SDS011;65309;49.790;18.972;2024-01-11T03:48:01;1.25;;;1.08;;
76477;SDS011;65309;49.790;18.972;2024-01-11T03:53:04;4.07;;;1.23;;
76477;SDS011;65309;49.790;18.972;2024-01-11T03:58:07;0.75;;;0.75;;
76477;SDS011;65309;49.790;18.972;2024-01-11T04:03:09;2.22;;;1.52;;
76477;SDS011;65309;49.790;18.972;2024-01-11T04:08:12;2.60;;;1.38;;
76477;SDS011;65309;49.790;18.972;2024-01-11T04:13:15;0.63;;;0.63;;
76477;SDS011;65309;49.790;18.972;2024-01-11T04:18:17;3.28;;;1.95;;
76477;SDS011;65309;49.790;18.972;2024-01-11T04:23:20;0.57;;;0.47;;
76477;SDS011;65309;49.790;18.972;2024-01-11T04:28:23;5.03;;;2.50;;
76477;SDS011;65309;49.790;18.972;2024-01-11T04:33:25;3.75;;;2.13;;
76477;SDS011;65309;49.790;18.972;2024-01-11T04:38:28;1.20;;;0.93;;
76477;SDS011;65309;49.790;18.972;2024-01-11T04:43:31;3.58;;;2.33;;
76477;SDS011;65309;49.790;18.972;2024-01-11T04:48:33;2.85;;;2.40;;
76477;SDS011;65309;49.790;18.972;2024-01-11T04:53:36;1.42;;;1.30;;
76477;SDS011;65309;49.790;18.972;2024-01-11T04:58:41;1.30;;;1.15;;
76477;SDS011;65309;49.790;18.972;2024-01-11T05:03:44;6.07;;;3.97;;
76477;SDS011;65309;49.790;18.972;2024-01-11T05:08:48;16.23;;;7.38;;
76477;SDS011;65309;49.790;18.972;2024-01-11T05:13:53;10.23;;;3.78;;
76477;SDS011;65309;49.790;18.972;2024-01-11T05:18:56;3.30;;;2.53;;
76477;SDS011;65309;49.790;18.972;2024-01-11T05:29:02;2.15;;;1.80;;
76477;SDS011;65309;49.790;18.972;2024-01-11T05:34:06;5.38;;;2.90;;
76477;SDS011;65309;49.790;18.972;2024-01-11T05:39:09;2.95;;;2.63;;
76477;SDS011;65309;49.790;18.972;2024-01-11T05:44:12;3.65;;;2.05;;
76477;SDS011;65309;49.790;18.972;2024-01-11T05:49:14;2.58;;;1.63;;
76477;SDS011;65309;49.790;18.972;2024-01-11T05:54:17;2.17;;;1.67;;
76477;SDS011;65309;49.790;18.972;2024-01-11T05:59:20;4.95;;;2.78;;
76477;SDS011;65309;49.790;18.972;2024-01-11T06:04:22;6.82;;;3.25;;
76477;SDS011;65309;49.790;18.972;2024-01-11T06:09:24;14.10;;;3.08;;
76477;SDS011;65309;49.790;18.972;2024-01-11T06:14:27;11.02;;;2.60;;
76477;SDS011;65309;49.790;18.972;2024-01-11T06:19:30;3.88;;;3.55;;
76477;SDS011;65309;49.790;18.972;2024-01-11T06:24:32;10.65;;;4.28;;
76477;SDS011;65309;49.790;18.972;2024-01-11T06:29:35;9.65;;;4.35;;
76477;SDS011;65309;49.790;18.972;2024-01-11T06:34:37;7.80;;;3.63;;
76477;SDS011;65309;49.790;18.972;2024-01-11T06:39:39;3.30;;;2.90;;
76477;SDS011;65309;49.790;18.972;2024-01-11T06:44:43;4.40;;;1.55;;
76477;SDS011;65309;49.790;18.972;2024-01-11T06:49:45;5.35;;;3.70;;
76477;SDS011;65309;49.790;18.972;2024-01-11T06:54:47;5.82;;;5.05;;
76477;SDS011;65309;49.790;18.972;2024-01-11T06:59:51;6.97;;;3.78;;
76477;SDS011;65309;49.790;18.972;2024-01-11T07:04:53;4.20;;;2.42;;
76477;SDS011;65309;49.790;18.972;2024-01-11T07:09:55;11.30;;;5.30;;
76477;SDS011;65309;49.790;18.972;2024-01-11T07:14:59;3.13;;;2.33;;
76477;SDS011;65309;49.790;18.972;2024-01-11T07:20:01;5.40;;;2.70;;
76477;SDS011;65309;49.790;18.972;2024-01-11T07:25:06;1.77;;;1.63;;
76477;SDS011;65309;49.790;18.972;2024-01-11T07:30:11;13.07;;;6.28;;
76477;SDS011;65309;49.790;18.972;2024-01-11T07:35:14;7.70;;;2.55;;
76477;SDS011;65309;49.790;18.972;2024-01-11T07:40:20;2.38;;;1.65;;
76477;SDS011;65309;49.790;18.972;2024-01-11T07:45:23;4.03;;;2.45;;
76477;SDS011;65309;49.790;18.972;2024-01-11T07:50:25;2.25;;;1.50;;
76477;SDS011;65309;49.790;18.972;2024-01-11T07:55:27;2.25;;;2.05;;
76477;SDS011;65309;49.790;18.972;2024-01-11T08:00:31;2.15;;;1.88;;
76477;SDS011;65309;49.790;18.972;2024-01-11T08:05:33;1.27;;;0.77;;
76477;SDS011;65309;49.790;18.972;2024-01-11T08:10:35;4.00;;;1.63;;
76477;SDS011;65309;49.790;18.972;2024-01-11T08:15:38;2.92;;;2.03;;
76477;SDS011;65309;49.790;18.972;2024-01-11T08:20:41;7.38;;;4.22;;
76477;SDS011;65309;49.790;18.972;2024-01-11T08:25:43;3.28;;;2.30;;
76477;SDS011;65309;49.790;18.972;2024-01-11T08:30:46;7.63;;;2.05;;
76477;SDS011;65309;49.790;18.972;2024-01-11T08:35:49;2.72;;;2.05;;
76477;SDS011;65309;49.790;18.972;2024-01-11T08:40:51;2.70;;;1.80;;
76477;SDS011;65309;49.790;18.972;2024-01-11T08:45:54;5.80;;;3.08;;
76477;SDS011;65309;49.790;18.972;2024-01-11T08:50:56;10.98;;;3.95;;
76477;SDS011;65309;49.790;18.972;2024-01-11T08:55:59;3.30;;;2.08;;
76477;SDS011;65309;49.790;18.972;2024-01-11T09:01:02;2.55;;;1.35;;
76477;SDS011;65309;49.790;18.972;2024-01-11T09:11:08;2.38;;;1.50;;
76477;SDS011;65309;49.790;18.972;2024-01-11T09:16:15;2.45;;;1.23;;
76477;SDS011;65309;49.790;18.972;2024-01-11T09:21:17;1.73;;;1.30;;
76477;SDS011;65309;49.790;18.972;2024-01-11T09:26:20;4.07;;;1.70;;
76477;SDS011;65309;49.790;18.972;2024-01-11T09:31:23;2.10;;;1.00;;
76477;SDS011;65309;49.790;18.972;2024-01-11T09:36:25;3.58;;;2.13;;
76477;SDS011;65309;49.790;18.972;2024-01-11T09:41:28;3.70;;;1.70;;
76477;SDS011;65309;49.790;18.972;2024-01-11T09:46:34;3.85;;;2.40;;
76477;SDS011;65309;49.790;18.972;2024-01-11T09:51:36;4.00;;;1.55;;
76477;SDS011;65309;49.790;18.972;2024-01-11T09:56:40;1.17;;;1.08;;
76477;SDS011;65309;49.790;18.972;2024-01-11T10:01:46;3.72;;;2.05;;
76477;SDS011;65309;49.790;18.972;2024-01-11T10:06:48;6.18;;;2.13;;
76477;SDS011;65309;49.790;18.972;2024-01-11T10:11:53;2.28;;;1.42;;
76477;SDS011;65309;49.790;18.972;2024-01-11T10:16:57;1.73;;;1.40;;
76477;SDS011;65309;49.790;18.972;2024-01-11T10:21:59;3.90;;;1.52;;
76477;SDS011;65309;49.790;18.972;2024-01-11T10:27:01;7.72;;;2.20;;
76477;SDS011;65309;49.790;18.972;2024-01-11T10:32:07;5.88;;;2.35;;
76477;SDS011;65309;49.790;18.972;2024-01-11T10:42:12;5.18;;;2.20;;
76477;SDS011;65309;49.790;18.972;2024-01-11T10:47:19;1.75;;;1.17;;
76477;SDS011;65309;49.790;18.972;2024-01-11T10:52:25;4.50;;;2.67;;
76477;SDS011;65309;49.790;18.972;2024-01-11T10:57:36;9.20;;;3.25;;
76477;SDS011;65309;49.790;18.972;2024-01-11T11:02:40;3.30;;;1.65;;
76477;SDS011;65309;49.790;18.972;2024-01-11T11:07:43;5.32;;;1.83;;
76477;SDS011;65309;49.790;18.972;2024-01-11T11:12:48;5.07;;;2.60;;
76477;SDS011;65309;49.790;18.972;2024-01-11T11:17:52;4.60;;;2.67;;
76477;SDS011;65309;49.790;18.972;2024-01-11T11:23:04;6.03;;;1.90;;
76477;SDS011;65309;49.790;18.972;2024-01-11T11:28:07;5.05;;;2.00;;
76477;SDS011;65309;49.790;18.972;2024-01-11T11:33:11;6.47;;;2.67;;
76477;SDS011;65309;49.790;18.972;2024-01-11T11:38:18;4.68;;;2.40;;
76477;SDS011;65309;49.790;18.972;2024-01-11T11:43:21;3.63;;;1.65;;
76477;SDS011;65309;49.790;18.972;2024-01-11T11:53:53;5.40;;;2.67;;
76477;SDS011;65309;49.790;18.972;2024-01-11T11:58:55;3.53;;;2.08;;
76477;SDS011;65309;49.790;18.972;2024-01-11T12:03:59;2.97;;;1.27;;
76477;SDS011;65309;49.790;18.972;2024-01-11T12:09:01;2.88;;;2.25;;
76477;SDS011;65309;49.790;18.972;2024-01-11T12:14:03;1.60;;;1.20;;
76477;SDS011;65309;49.790;18.972;2024-01-11T12:19:07;4.68;;;2.10;;
76477;SDS011;65309;49.790;18.972;2024-01-11T12:24:09;2.92;;;1.92;;
76477;SDS011;65309;49.790;18.972;2024-01-11T12:29:12;6.10;;;3.05;;
76477;SDS011;65309;49.790;18.972;2024-01-11T12:34:16;7.03;;;2.50;;
76477;SDS011;65309;49.790;18.972;2024-01-11T12:39:19;7.22;;;3.65;;
76477;SDS011;65309;49.790;18.972;2024-01-11T12:44:24;4.75;;;2.45;;
76477;SDS011;65309;49.790;18.972;2024-01-11T12:49:27;5.78;;;3.00;;
76477;SDS011;65309;49.790;18.972;2024-01-11T12:59:34;8.98;;;3.80;;
76477;SDS011;65309;49.790;18.972;2024-01-11T13:04:37;4.18;;;2.58;;
76477;SDS011;65309;49.790;18.972;2024-01-11T13:09:40;6.78;;;3.38;;
76477;SDS011;65309;49.790;18.972;2024-01-11T13:14:42;6.13;;;3.80;;
76477;SDS011;65309;49.790;18.972;2024-01-11T13:19:45;7.03;;;3.30;;
76477;SDS011;65309;49.790;18.972;2024-01-11T13:24:47;4.32;;;2.72;;
76477;SDS011;65309;49.790;18.972;2024-01-11T13:29:49;6.95;;;3.70;;
76477;SDS011;65309;49.790;18.972;2024-01-11T13:34:53;7.70;;;4.78;;
76477;SDS011;65309;49.790;18.972;2024-01-11T13:39:55;5.20;;;3.88;;
76477;SDS011;65309;49.790;18.972;2024-01-11T13:44:57;5.60;;;2.75;;
76477;SDS011;65309;49.790;18.972;2024-01-11T13:50:00;7.13;;;3.30;;
76477;SDS011;65309;49.790;18.972;2024-01-11T13:55:03;8.20;;;4.78;;
76477;SDS011;65309;49.790;18.972;2024-01-11T14:00:06;9.40;;;3.72;;
76477;SDS011;65309;49.790;18.972;2024-01-11T14:05:10;5.10;;;3.65;;
76477;SDS011;65309;49.790;18.972;2024-01-11T14:10:15;6.80;;;4.28;;
76477;SDS011;65309;49.790;18.972;2024-01-11T14:15:17;5.88;;;3.17;;
76477;SDS011;65309;49.790;18.972;2024-01-11T14:20:20;10.60;;;5.72;;
76477;SDS011;65309;49.790;18.972;2024-01-11T14:25:23;10.05;;;4.78;;
76477;SDS011;65309;49.790;18.972;2024-01-11T14:30:29;9.20;;;3.38;;
76477;SDS011;65309;49.790;18.972;2024-01-11T14:35:32;16.88;;;5.75;;
76477;SDS011;65309;49.790;18.972;2024-01-11T14:40:34;13.68;;;7.00;;
76477;SDS011;65309;49.790;18.972;2024-01-11T14:45:37;14.43;;;4.85;;
76477;SDS011;65309;49.790;18.972;2024-01-11T14:50:41;10.32;;;5.40;;
76477;SDS011;65309;49.790;18.972;2024-01-11T14:55:43;13.98;;;6.90;;
76477;SDS011;65309;49.790;18.972;2024-01-11T15:00:45;12.63;;;6.47;;
76477;SDS011;65309;49.790;18.972;2024-01-11T15:05:49;14.68;;;6.93;;
76477;SDS011;65309;49.790;18.972;2024-01-11T15:10:54;10.00;;;5.60;;
76477;SDS011;65309;49.790;18.972;2024-01-11T15:15:56;16.45;;;6.78;;
76477;SDS011;65309;49.790;18.972;2024-01-11T15:20:59;16.55;;;7.68;;
76477;SDS011;65309;49.790;18.972;2024-01-11T15:26:01;8.90;;;5.13;;
76477;SDS011;65309;49.790;18.972;2024-01-11T15:31:04;16.90;;;9.38;;
76477;SDS011;65309;49.790;18.972;2024-01-11T15:36:08;19.05;;;8.35;;
76477;SDS011;65309;49.790;18.972;2024-01-11T15:41:11;15.70;;;7.07;;
76477;SDS011;65309;49.790;18.972;2024-01-11T15:46:13;19.05;;;8.18;;
76477;SDS011;65309;49.790;18.972;2024-01-11T15:51:17;9.80;;;5.57;;
76477;SDS011;65309;49.790;18.972;2024-01-11T15:56:19;15.52;;;9.95;;
76477;SDS011;65309;49.790;18.972;2024-01-11T16:01:21;26.80;;;12.65;;
76477;SDS011;65309;49.790;18.972;2024-01-11T16:06:25;67.20;;;32.35;;
76477;SDS011;65309;49.790;18.972;2024-01-11T16:11:28;19.35;;;11.30;;
76477;SDS011;65309;49.790;18.972;2024-01-11T16:16:32;24.58;;;13.02;;
76477;SDS011;65309;49.790;18.972;2024-01-11T16:21:36;19.27;;;8.98;;
76477;SDS011;65309;49.790;18.972;2024-01-11T16:26:38;30.38;;;16.65;;
76477;SDS011;65309;49.790;18.972;2024-01-11T16:31:42;20.88;;;12.05;;
76477;SDS011;65309;49.790;18.972;2024-01-11T16:36:45;21.38;;;14.07;;
76477;SDS011;65309;49.790;18.972;2024-01-11T16:41:47;28.83;;;16.88;;
76477;SDS011;65309;49.790;18.972;2024-01-11T16:46:50;33.38;;;15.73;;
76477;SDS011;65309;49.790;18.972;2024-01-11T16:51:55;27.67;;;16.73;;
76477;SDS011;65309;49.790;18.972;2024-01-11T16:56:57;17.75;;;11.63;;
76477;SDS011;65309;49.790;18.972;2024-01-11T17:01:59;20.80;;;11.85;;
76477;SDS011;65309;49.790;18.972;2024-01-11T17:07:03;31.05;;;18.00;;
76477;SDS011;65309;49.790;18.972;2024-01-11T17:12:06;22.30;;;12.10;;
76477;SDS011;65309;49.790;18.972;2024-01-11T17:17:09;37.35;;;19.80;;
76477;SDS011;65309;49.790;18.972;2024-01-11T17:22:13;21.80;;;10.55;;
76477;SDS011;65309;49.790;18.972;2024-01-11T17:27:15;22.25;;;14.27;;
76477;SDS011;65309;49.790;18.972;2024-01-11T17:32:17;20.33;;;12.70;;
76477;SDS011;65309;49.790;18.972;2024-01-11T17:37:20;47.85;;;24.35;;
76477;SDS011;65309;49.790;18.972;2024-01-11T17:42:23;42.88;;;22.00;;
76477;SDS011;65309;49.790;18.972;2024-01-11T17:47:25;47.70;;;19.67;;
76477;SDS011;65309;49.790;18.972;2024-01-11T17:52:28;38.58;;;19.33;;
76477;SDS011;65309;49.790;18.972;2024-01-11T17:57:31;34.55;;;17.70;;
76477;SDS011;65309;49.790;18.972;2024-01-11T18:02:33;21.17;;;11.27;;
76477;SDS011;65309;49.790;18.972;2024-01-11T18:07:36;28.77;;;16.52;;
76477;SDS011;65309;49.790;18.972;2024-01-11T18:12:39;23.58;;;13.00;;
76477;SDS011;65309;49.790;18.972;2024-01-11T18:17:41;42.67;;;24.73;;
76477;SDS011;65309;49.790;18.972;2024-01-11T18:22:45;17.88;;;9.57;;
76477;SDS011;65309;49.790;18.972;2024-01-11T18:27:49;31.60;;;17.13;;
76477;SDS011;65309;49.790;18.972;2024-01-11T18:32:51;26.60;;;14.63;;
76477;SDS011;65309;49.790;18.972;2024-01-11T18:37:55;17.88;;;10.05;;
76477;SDS011;65309;49.790;18.972;2024-01-11T18:42:57;21.60;;;14.15;;
76477;SDS011;65309;49.790;18.972;2024-01-11T18:48:01;16.60;;;9.70;;
76477;SDS011;65309;49.790;18.972;2024-01-11T18:53:09;19.52;;;9.38;;
76477;SDS011;65309;49.790;18.972;2024-01-11T18:58:11;30.88;;;15.15;;
76477;SDS011;65309;49.790;18.972;2024-01-11T19:03:13;25.25;;;13.68;;
76477;SDS011;65309;49.790;18.972;2024-01-11T19:08:18;30.33;;;17.35;;
76477;SDS011;65309;49.790;18.972;2024-01-11T19:13:20;48.15;;;26.23;;
76477;SDS011;65309;49.790;18.972;2024-01-11T19:18:22;27.15;;;14.48;;
76477;SDS011;65309;49.790;18.972;2024-01-11T19:23:26;30.33;;;14.85;;
76477;SDS011;65309;49.790;18.972;2024-01-11T19:28:29;48.17;;;27.02;;
76477;SDS011;65309;49.790;18.972;2024-01-11T19:33:31;29.88;;;16.33;;
76477;SDS011;65309;49.790;18.972;2024-01-11T19:38:37;17.25;;;11.10;;
76477;SDS011;65309;49.790;18.972;2024-01-11T19:43:41;19.63;;;9.65;;
76477;SDS011;65309;49.790;18.972;2024-01-11T19:48:48;27.88;;;15.38;;
76477;SDS011;65309;49.790;18.972;2024-01-11T19:53:52;17.70;;;10.73;;
76477;SDS011;65309;49.790;18.972;2024-01-11T19:58:54;27.75;;;17.80;;
76477;SDS011;65309;49.790;18.972;2024-01-11T20:03:57;9.48;;;7.00;;
76477;SDS011;65309;49.790;18.972;2024-01-11T20:09:01;17.25;;;10.15;;
76477;SDS011;65309;49.790;18.972;2024-01-11T20:14:03;27.55;;;16.85;;
76477;SDS011;65309;49.790;18.972;2024-01-11T20:19:07;43.40;;;23.10;;
76477;SDS011;65309;49.790;18.972;2024-01-11T20:24:12;28.15;;;16.10;;
76477;SDS011;65309;49.790;18.972;2024-01-11T20:29:14;27.45;;;15.55;;
76477;SDS011;65309;49.790;18.972;2024-01-11T20:34:16;26.63;;;14.45;;
76477;SDS011;65309;49.790;18.972;2024-01-11T20:39:20;31.23;;;18.13;;
76477;SDS011;65309;49.790;18.972;2024-01-11T20:44:22;25.73;;;11.82;;
76477;SDS011;65309;49.790;18.972;2024-01-11T20:49:24;14.73;;;7.85;;
76477;SDS011;65309;49.790;18.972;2024-01-11T20:54:28;15.75;;;10.88;;
76477;SDS011;65309;49.790;18.972;2024-01-11T20:59:30;39.53;;;19.48;;
76477;SDS011;65309;49.790;18.972;2024-01-11T21:04:33;26.45;;;14.93;;
76477;SDS011;65309;49.790;18.972;2024-01-11T21:09:36;30.05;;;16.48;;
76477;SDS011;65309;49.790;18.972;2024-01-11T21:14:39;25.75;;;14.55;;
76477;SDS011;65309;49.790;18.972;2024-01-11T21:19:41;26.80;;;14.68;;
76477;SDS011;65309;49.790;18.972;2024-01-11T21:24:46;16.63;;;8.52;;
76477;SDS011;65309;49.790;18.972;2024-01-11T21:29:49;26.30;;;14.32;;
76477;SDS011;65309;49.790;18.972;2024-01-11T21:34:51;21.95;;;12.90;;
76477;SDS011;65309;49.790;18.972;2024-01-11T21:39:55;32.22;;;15.52;;
76477;SDS011;65309;49.790;18.972;2024-01-11T21:44:58;29.65;;;13.80;;
76477;SDS011;65309;49.790;18.972;2024-01-11T21:50:00;11.95;;;9.32;;
76477;SDS011;65309;49.790;18.972;2024-01-11T21:55:04;19.77;;;10.13;;
76477;SDS011;65309;49.790;18.972;2024-01-11T22:00:07;10.82;;;7.90;;
76477;SDS011;65309;49.790;18.972;2024-01-11T22:05:10;16.00;;;9.75;;
76477;SDS011;65309;49.790;18.972;2024-01-11T22:10:14;9.13;;;5.43;;
76477;SDS011;65309;49.790;18.972;2024-01-11T22:15:16;22.67;;;13.05;;
76477;SDS011;65309;49.790;18.972;2024-01-11T22:20:18;35.22;;;18.45;;
76477;SDS011;65309;49.790;18.972;2024-01-11T22:25:23;41.78;;;20.67;;
76477;SDS011;65309;49.790;18.972;2024-01-11T22:30:25;13.95;;;9.95;;
76477;SDS011;65309;49.790;18.972;2024-01-11T22:35:27;24.73;;;14.23;;
76477;SDS011;65309;49.790;18.972;2024-01-11T22:40:31;19.63;;;10.50;;
76477;SDS011;65309;49.790;18.972;2024-01-11T22:45:33;15.85;;;9.48;;
76477;SDS011;65309;49.790;18.972;2024-01-11T22:50:36;16.83;;;8.95;;
76477;SDS011;65309;49.790;18.972;2024-01-11T22:55:40;7.60;;;5.10;;
76477;SDS011;65309;49.790;18.972;2024-01-11T23:00:42;13.48;;;6.97;;
76477;SDS011;65309;49.790;18.972;2024-01-11T23:05:44;14.30;;;9.30;;
76477;SDS011;65309;49.790;18.972;2024-01-11T23:10:47;30.90;;;14.32;;
76477;SDS011;65309;49.790;18.972;2024-01-11T23:15:50;11.00;;;6.38;;
76477;SDS011;65309;49.790;18.972;2024-01-11T23:20:52;19.80;;;10.77;;
76477;SDS011;65309;49.790;18.972;2024-01-11T23:25:55;18.52;;;9.48;;
76477;SDS011;65309;49.790;18.972;2024-01-11T23:30:57;27.67;;;13.55;;
76477;SDS011;65309;49.790;18.972;2024-01-11T23:36:00;17.13;;;10.40;;
76477;SDS011;65309;49.790;18.972;2024-01-11T23:41:03;23.90;;;13.15;;
76477;SDS011;65309;49.790;18.972;2024-01-11T23:46:06;5.60;;;4.95;;
76477;SDS011;65309;49.790;18.972;2024-01-11T23:51:08;9.57;;;5.95;;
76477;SDS011;65309;49.790;18.972;2024-01-11T23:56:11;29.98;;;14.75;;
